createdAt,value
2022-10-06T00:00:19.211Z,4.00
2022-10-06T00:02:47.755Z,4.00
2022-10-06T00:05:16.061Z,4.00
2022-10-06T00:07:44.488Z,4.00
2022-10-06T00:10:12.694Z,1.50
2022-10-06T00:12:41.451Z,4.00
2022-10-06T00:15:18.122Z,1.75
2022-10-06T00:17:46.298Z,4.00
2022-10-06T00:20:14.793Z,2.00
2022-10-06T00:22:44.339Z,3.00
2022-10-06T00:25:13.681Z,2.00
2022-10-06T00:27:42.820Z,2.00
2022-10-06T00:30:12.033Z,4.50
2022-10-06T00:32:41.949Z,4.25
2022-10-06T00:35:11.152Z,1.50
2022-10-06T00:37:39.403Z,4.00
2022-10-06T00:40:09.967Z,4.25
2022-10-06T00:42:50.216Z,4.25
2022-10-06T00:45:19.596Z,3.50
2022-10-06T00:47:49.289Z,6.50
2022-10-06T00:50:17.530Z,4.00
2022-10-06T00:52:45.853Z,4.00
2022-10-06T00:55:15.194Z,4.50
2022-10-06T00:57:43.728Z,2.00
2022-10-06T01:00:12.425Z,1.25
2022-10-06T01:02:42.759Z,3.50
2022-10-06T01:05:16.530Z,4.00
2022-10-06T01:07:46.002Z,4.50
2022-10-06T01:10:14.171Z,4.00
2022-10-06T01:12:42.988Z,4.50
2022-10-06T01:15:11.658Z,3.50
2022-10-06T01:17:43.265Z,4.00
2022-10-06T01:20:14.383Z,5.50
2022-10-06T01:22:45.993Z,5.00
2022-10-06T01:25:15.151Z,2.00
2022-10-06T01:27:46.043Z,2.50
2022-10-06T01:30:17.663Z,1.00
2022-10-06T01:32:45.992Z,1.00
2022-10-06T01:35:15.225Z,1.00
2022-10-06T01:37:44.782Z,4.00
2022-10-06T01:40:12.996Z,4.50
2022-10-06T01:42:41.294Z,4.50
2022-10-06T01:45:10.872Z,4.00
2022-10-06T01:47:39.015Z,4.00
2022-10-06T01:50:08.481Z,2.00
2022-10-06T01:52:37.272Z,4.00
2022-10-06T01:55:07.530Z,6.50
2022-10-06T01:57:40.044Z,8.50
2022-10-06T02:00:09.747Z,4.25
2022-10-06T02:02:41.514Z,4.50
2022-10-06T02:05:09.886Z,4.25
2022-10-06T02:07:41.572Z,4.00
2022-10-06T02:10:11.601Z,5.00
2022-10-06T02:12:39.755Z,4.00
2022-10-06T02:15:11.301Z,3.50
2022-10-06T02:17:40.310Z,3.50
2022-10-06T02:20:09.078Z,1.25
2022-10-06T02:22:38.909Z,4.00
2022-10-06T02:25:07.596Z,5.00
2022-10-06T02:27:37.663Z,5.00
2022-10-06T02:30:06.714Z,1.75
2022-10-06T02:32:36.319Z,4.50
2022-10-06T02:35:05.182Z,2.00
2022-10-06T02:37:33.516Z,4.00
2022-10-06T02:40:03.528Z,4.25
2022-10-06T02:42:32.931Z,2.25
2022-10-06T02:45:02.728Z,3.00
2022-10-06T02:47:32.782Z,3.00
2022-10-06T02:50:02.183Z,3.75
2022-10-06T02:52:34.872Z,1.75
2022-10-06T02:55:04.367Z,2.75
2022-10-06T02:57:33.415Z,4.75
2022-10-06T03:00:05.439Z,2.00
2022-10-06T03:02:34.732Z,4.00
2022-10-06T03:05:03.102Z,4.00
2022-10-06T03:07:31.945Z,3.00
2022-10-06T03:10:00.220Z,5.00
2022-10-06T03:12:30.246Z,7.75
2022-10-06T03:15:03.567Z,3.00
2022-10-06T03:17:32.792Z,4.50
2022-10-06T03:20:01.001Z,4.50
2022-10-06T03:22:29.156Z,5.50
2022-10-06T03:24:59.184Z,2.00
2022-10-06T03:27:27.817Z,5.25
2022-10-06T03:30:01.335Z,6.00
2022-10-06T03:32:34.775Z,7.25
2022-10-06T03:35:05.992Z,5.50
2022-10-06T03:37:35.245Z,9.00
2022-10-06T03:40:08.007Z,11.75
2022-10-06T03:42:37.430Z,13.00
2022-10-06T03:45:06.565Z,11.50
2022-10-06T03:47:36.313Z,10.50
2022-10-06T03:50:05.448Z,10.00
2022-10-06T03:52:34.423Z,6.25
2022-10-06T03:55:05.210Z,9.00
2022-10-06T04:01:43.929Z,9.50
2022-10-06T04:04:35.509Z,6.25
2022-10-06T04:07:20.765Z,9.75
2022-10-06T04:10:27.905Z,13.50
2022-10-06T04:13:05.795Z,8.00
2022-10-06T04:15:45.092Z,6.25
2022-10-06T04:18:13.644Z,8.00
2022-10-06T04:20:43.692Z,3.50
2022-10-06T04:23:16.372Z,6.50
2022-10-06T04:25:45.280Z,6.25
2022-10-06T04:28:17.156Z,10.00
2022-10-06T04:30:56.576Z,16.00
2022-10-06T04:33:25.518Z,11.50
2022-10-06T04:36:01.784Z,14.50
2022-10-06T04:38:31.452Z,17.00
2022-10-06T04:41:16.474Z,9.00
2022-10-06T04:43:46.214Z,11.75
2022-10-06T04:46:38.031Z,10.25
2022-10-06T04:49:19.890Z,6.00
2022-10-06T04:51:52.301Z,9.50
2022-10-06T04:54:21.314Z,10.00
2022-10-06T04:57:19.964Z,6.50
2022-10-06T05:02:59.266Z,11.00
2022-10-06T05:05:27.846Z,10.50
2022-10-06T05:07:59.191Z,11.00
2022-10-06T05:10:28.568Z,14.00
2022-10-06T05:12:57.944Z,15.00
2022-10-06T05:15:28.280Z,14.50
2022-10-06T05:17:59.653Z,14.50
2022-10-06T05:20:27.965Z,20.00
2022-10-06T05:22:59.433Z,14.25
2022-10-06T05:25:31.005Z,18.75
2022-10-06T05:29:42.693Z,21.25
2022-10-06T05:32:11.418Z,23.50
2022-10-06T05:34:39.581Z,24.50
2022-10-06T05:37:10.222Z,23.25
2022-10-06T05:39:39.433Z,27.25
2022-10-06T05:42:08.774Z,22.25
2022-10-06T05:44:37.491Z,24.50
2022-10-06T05:47:12.082Z,23.25
2022-10-06T05:49:41.204Z,23.75
2022-10-06T05:52:09.531Z,26.00
2022-10-06T05:54:38.114Z,24.00
2022-10-06T05:57:08.378Z,22.25
2022-10-06T05:59:37.265Z,21.25
2022-10-06T06:02:06.858Z,19.00
2022-10-06T06:04:41.801Z,20.50
2022-10-06T06:07:11.829Z,16.75
2022-10-06T06:09:43.850Z,21.00
2022-10-06T06:12:12.256Z,23.00
2022-10-06T06:15:28.816Z,17.00
2022-10-06T06:18:05.131Z,20.50
2022-10-06T06:20:35.139Z,18.25
2022-10-06T06:23:11.515Z,18.25
2022-10-06T06:25:40.027Z,20.75
2022-10-06T06:28:09.093Z,23.75
2022-10-06T06:30:38.043Z,17.00
2022-10-06T06:33:11.020Z,8.00
2022-10-06T06:35:41.083Z,18.25
2022-10-06T06:38:12.462Z,18.75
2022-10-06T06:40:41.740Z,17.00
2022-10-06T06:43:12.787Z,18.00
2022-10-06T06:46:16.287Z,22.50
2022-10-06T06:48:59.220Z,17.75
2022-10-06T06:51:30.650Z,17.00
2022-10-06T06:54:02.505Z,17.25
2022-10-06T06:56:36.265Z,7.50
2022-10-06T06:59:12.811Z,20.50
2022-10-06T07:01:47.923Z,18.00
2022-10-06T07:04:20.787Z,16.75
2022-10-06T07:06:58.588Z,21.00
2022-10-06T07:09:32.763Z,21.00
2022-10-06T07:12:11.718Z,17.00
2022-10-06T07:14:58.250Z,20.00
2022-10-06T07:17:45.096Z,17.00
2022-10-06T07:20:30.810Z,17.75
2022-10-06T07:23:18.947Z,17.25
2022-10-06T07:25:47.471Z,17.25
2022-10-06T07:28:17.327Z,15.75
2022-10-06T07:30:46.352Z,13.50
2022-10-06T07:33:18.244Z,13.50
2022-10-06T07:35:48.326Z,15.00
2022-10-06T07:38:25.747Z,7.00
2022-10-06T07:41:18.003Z,16.00
2022-10-06T07:43:47.238Z,18.50
2022-10-06T07:46:19.463Z,20.00
2022-10-06T07:49:17.666Z,16.75
2022-10-06T07:51:46.888Z,18.25
2022-10-06T07:54:16.682Z,18.00
2022-10-06T07:56:44.863Z,17.50
2022-10-06T07:59:13.005Z,18.25
2022-10-06T08:01:41.246Z,12.50
2022-10-06T08:04:12.011Z,17.50
2022-10-06T08:06:44.800Z,21.25
2022-10-06T08:09:13.234Z,18.25
2022-10-06T08:11:44.846Z,15.25
2022-10-06T08:14:15.403Z,17.25
2022-10-06T08:16:43.830Z,9.25
2022-10-06T08:19:12.006Z,24.00
2022-10-06T08:21:40.318Z,22.75
2022-10-06T08:24:09.956Z,16.25
2022-10-06T08:26:38.996Z,21.50
2022-10-06T08:29:08.788Z,22.00
2022-10-06T08:31:37.064Z,21.25
2022-10-06T08:34:11.911Z,24.75
2022-10-06T08:36:45.006Z,25.25
2022-10-06T08:39:21.094Z,23.00
2022-10-06T08:41:52.550Z,26.50
2022-10-06T08:44:25.570Z,24.00
2022-10-06T08:46:56.845Z,23.00
2022-10-06T08:49:27.210Z,24.50
2022-10-06T08:51:59.274Z,29.50
2022-10-06T08:54:31.486Z,24.25
2022-10-06T08:57:06.794Z,25.75
2022-10-06T08:59:37.734Z,23.00
2022-10-06T09:02:17.655Z,19.25
2022-10-06T09:04:48.579Z,18.75
2022-10-06T09:07:18.120Z,21.75
2022-10-06T09:09:57.001Z,19.75
2022-10-06T09:12:30.583Z,21.00
2022-10-06T09:15:06.497Z,20.50
2022-10-06T09:17:37.331Z,21.50
2022-10-06T09:20:07.762Z,17.50
2022-10-06T09:22:36.362Z,25.25
2022-10-06T09:25:15.789Z,20.50
2022-10-06T09:27:45.005Z,19.00
2022-10-06T09:30:15.515Z,24.50
2022-10-06T09:32:47.307Z,20.50
2022-10-06T09:35:20.410Z,24.25
2022-10-06T09:37:56.980Z,21.50
2022-10-06T09:40:35.544Z,22.00
2022-10-06T09:43:05.499Z,26.50
2022-10-06T09:45:35.219Z,22.75
2022-10-06T09:48:13.548Z,17.50
2022-10-06T09:50:42.737Z,19.75
2022-10-06T09:53:18.605Z,21.75
2022-10-06T09:55:57.878Z,16.75
2022-10-06T09:58:33.090Z,21.00
2022-10-06T10:01:05.127Z,21.00
2022-10-06T10:04:01.995Z,23.50
2022-10-06T10:06:35.189Z,23.00
2022-10-06T10:09:23.025Z,22.25
2022-10-06T10:12:19.482Z,21.25
2022-10-06T10:14:47.813Z,22.00
2022-10-06T10:17:20.092Z,22.25
2022-10-06T10:19:53.278Z,26.75
2022-10-06T10:22:23.496Z,24.50
2022-10-06T10:24:57.203Z,30.75
2022-10-06T10:27:31.923Z,23.50
2022-10-06T10:30:04.043Z,28.25
2022-10-06T10:32:46.648Z,28.75
2022-10-06T10:35:18.314Z,24.00
2022-10-06T10:37:51.512Z,22.67
2022-10-06T10:40:27.112Z,22.75
2022-10-06T10:42:57.850Z,18.00
2022-10-06T10:45:28.580Z,19.50
2022-10-06T10:47:59.641Z,20.25
2022-10-06T10:50:30.443Z,20.00
2022-10-06T10:53:01.122Z,16.25
2022-10-06T10:55:31.162Z,17.75
2022-10-06T10:58:02.708Z,15.25
2022-10-06T11:00:35.550Z,17.00
2022-10-06T11:03:05.442Z,17.50
2022-10-06T11:05:46.576Z,18.00
2022-10-06T11:08:19.309Z,14.75
2022-10-06T11:10:49.888Z,19.00
2022-10-06T11:13:25.256Z,22.00
2022-10-06T11:16:06.580Z,20.50
2022-10-06T11:18:43.592Z,11.50
2022-10-06T11:21:13.919Z,15.50
2022-10-06T11:23:48.375Z,10.25
2022-10-06T11:26:25.792Z,9.25
2022-10-06T11:28:58.061Z,12.00
2022-10-06T11:31:31.693Z,10.50
2022-10-06T11:34:01.845Z,14.00
2022-10-06T11:36:43.403Z,13.00
2022-10-06T11:39:17.908Z,12.75
2022-10-06T11:41:52.404Z,12.00
2022-10-06T11:44:25.466Z,21.00
2022-10-06T11:46:56.157Z,20.00
2022-10-06T11:49:48.869Z,19.75
2022-10-06T11:52:36.830Z,20.50
2022-10-06T11:55:10.485Z,20.75
2022-10-06T11:58:05.502Z,18.50
2022-10-06T12:00:45.166Z,17.00
2022-10-06T12:03:37.625Z,17.75
2022-10-06T12:06:31.746Z,17.75
2022-10-06T12:09:02.118Z,21.25
2022-10-06T12:11:39.990Z,23.25
2022-10-06T12:16:00.003Z,14.00
2022-10-06T12:17:19.915Z,20.00
2022-10-06T12:19:57.036Z,19.00
2022-10-06T12:22:31.495Z,18.25
2022-10-06T12:25:09.150Z,20.75
2022-10-06T12:27:49.370Z,14.75
2022-10-06T12:30:24.888Z,18.75
2022-10-06T12:32:57.531Z,17.25
2022-10-06T12:35:28.957Z,21.25
2022-10-06T12:38:05.101Z,19.25
2022-10-06T12:40:57.266Z,21.25
2022-10-06T12:43:43.570Z,20.00
2022-10-06T12:46:23.750Z,15.25
2022-10-06T12:49:08.345Z,22.00
2022-10-06T12:51:57.923Z,18.00
2022-10-06T12:54:42.462Z,20.00
2022-10-06T12:57:18.322Z,19.50
2022-10-06T12:59:47.464Z,20.25
2022-10-06T13:02:19.411Z,22.75
2022-10-06T13:04:55.681Z,19.50
2022-10-06T13:07:25.350Z,21.75
2022-10-06T13:10:17.490Z,22.00
2022-10-06T13:12:47.516Z,12.25
2022-10-06T13:15:20.857Z,16.00
2022-10-06T13:17:51.744Z,16.25
2022-10-06T13:20:37.710Z,15.25
2022-10-06T13:23:16.434Z,17.00
2022-10-06T13:25:47.794Z,21.00
2022-10-06T13:28:27.747Z,17.25
2022-10-06T13:30:57.603Z,31.00
2022-10-06T13:33:39.429Z,20.25
2022-10-06T13:36:09.218Z,17.50
2022-10-06T13:38:38.879Z,21.00
2022-10-06T13:41:17.686Z,16.75
2022-10-06T13:43:47.267Z,21.00
2022-10-06T13:46:21.527Z,23.50
2022-10-06T13:48:52.052Z,17.25
2022-10-06T13:51:23.234Z,23.50
2022-10-06T13:53:52.746Z,23.75
2022-10-06T13:56:30.463Z,19.00
2022-10-06T13:58:59.397Z,19.75
2022-10-06T14:01:31.022Z,33.75
2022-10-06T14:04:15.674Z,25.50
2022-10-06T14:06:49.182Z,25.00
2022-10-06T14:09:23.315Z,23.00
2022-10-06T14:11:53.235Z,23.00
2022-10-06T14:14:21.992Z,22.50
2022-10-06T14:16:55.242Z,23.50
2022-10-06T14:19:37.526Z,19.50
2022-10-06T14:22:06.611Z,23.00
2022-10-06T14:24:37.554Z,21.25
2022-10-06T14:27:12.323Z,21.50
2022-10-06T14:29:44.888Z,22.00
2022-10-06T14:32:15.042Z,20.50
2022-10-06T14:34:43.677Z,20.75
2022-10-06T14:37:15.555Z,16.50
2022-10-06T14:39:44.643Z,17.75
2022-10-06T14:42:15.507Z,19.25
2022-10-06T14:44:43.643Z,16.00
2022-10-06T14:47:14.056Z,17.75
2022-10-06T14:49:42.413Z,20.00
2022-10-06T14:52:11.345Z,21.50
2022-10-06T14:54:39.523Z,18.00
2022-10-06T14:57:33.318Z,16.75
2022-10-06T15:00:03.502Z,16.50
2022-10-06T15:02:36.414Z,14.75
2022-10-06T15:05:11.066Z,15.75
2022-10-06T15:07:59.028Z,7.75
2022-10-06T15:10:28.774Z,9.25
2022-10-06T15:12:57.770Z,10.50
2022-10-06T15:15:28.506Z,14.00
2022-10-06T15:17:56.744Z,18.00
2022-10-06T15:20:25.193Z,19.25
2022-10-06T15:22:53.587Z,18.50
2022-10-06T15:25:39.189Z,13.25
2022-10-06T15:28:50.761Z,15.25
2022-10-06T15:31:25.111Z,19.67
2022-10-06T15:33:55.086Z,22.75
2022-10-06T15:36:25.029Z,21.25
2022-10-06T15:38:54.613Z,22.75
2022-10-06T15:41:23.655Z,23.25
2022-10-06T15:43:58.432Z,26.50
2022-10-06T15:46:32.383Z,16.75
2022-10-06T15:49:02.550Z,24.25
2022-10-06T15:51:32.028Z,22.25
2022-10-06T15:54:01.091Z,22.75
2022-10-06T15:56:31.549Z,23.00
2022-10-06T15:59:10.604Z,31.50
2022-10-06T16:01:56.264Z,28.75
2022-10-06T16:04:34.800Z,30.50
2022-10-06T16:07:16.392Z,29.75
2022-10-06T16:09:46.820Z,26.75
2022-10-06T16:12:23.074Z,26.75
2022-10-06T16:14:51.662Z,19.25
2022-10-06T16:17:21.926Z,30.25
2022-10-06T16:19:55.749Z,25.00
2022-10-06T16:22:36.252Z,20.25
2022-10-06T16:25:09.522Z,22.25
2022-10-06T16:27:39.620Z,21.00
2022-10-06T16:30:33.046Z,12.75
2022-10-06T16:33:02.729Z,21.25
2022-10-06T16:35:31.362Z,27.50
2022-10-06T16:37:59.771Z,26.00
2022-10-06T16:40:28.236Z,22.75
2022-10-06T16:42:57.262Z,25.50
2022-10-06T16:45:26.594Z,26.00
2022-10-06T16:47:55.120Z,21.00
2022-10-06T16:50:25.060Z,24.50
2022-10-06T16:52:54.176Z,29.00
2022-10-06T16:55:23.295Z,22.75
2022-10-06T16:57:51.515Z,24.75
2022-10-06T17:00:21.086Z,19.50
2022-10-06T17:02:50.422Z,27.00
2022-10-06T17:05:19.939Z,27.50
2022-10-06T17:07:49.791Z,26.00
2022-10-06T17:10:20.991Z,33.00
2022-10-06T17:13:18.640Z,25.75
2022-10-06T17:15:47.494Z,25.25
2022-10-06T17:18:18.495Z,19.50
2022-10-06T17:20:55.511Z,27.00
2022-10-06T17:23:40.657Z,24.50
2022-10-06T17:26:10.584Z,17.25
2022-10-06T17:28:42.252Z,27.75
2022-10-06T17:31:10.841Z,23.00
2022-10-06T17:33:40.841Z,26.50
2022-10-06T17:36:11.343Z,28.50
2022-10-06T17:38:42.762Z,27.00
2022-10-06T17:41:36.562Z,34.00
2022-10-06T17:44:07.721Z,23.25
2022-10-06T17:46:38.725Z,29.25
2022-10-06T17:49:08.803Z,24.50
2022-10-06T17:51:40.680Z,25.25
2022-10-06T17:54:13.125Z,29.00
2022-10-06T17:56:41.649Z,24.50
2022-10-06T17:59:14.601Z,17.00
2022-10-06T18:01:44.428Z,24.75
2022-10-06T18:04:15.705Z,24.25
2022-10-06T18:06:45.637Z,24.25
2022-10-06T18:09:20.871Z,25.50
2022-10-06T18:11:48.758Z,24.50
2022-10-06T18:14:18.680Z,25.75
2022-10-06T18:16:56.233Z,29.50
2022-10-06T18:19:26.677Z,28.50
2022-10-06T18:21:56.661Z,25.25
2022-10-06T18:24:27.793Z,24.50
2022-10-06T18:26:56.878Z,27.75
2022-10-06T18:38:00.488Z,24.50
2022-10-06T18:40:31.200Z,22.00
2022-10-06T18:43:00.421Z,23.75
2022-10-06T18:45:48.987Z,22.50
2022-10-06T18:48:35.816Z,18.25
2022-10-06T18:51:41.878Z,25.50
2022-10-06T18:54:12.325Z,24.00
2022-10-06T18:56:43.742Z,21.50
2022-10-06T18:59:17.652Z,22.50
2022-10-06T19:01:47.155Z,29.25
2022-10-06T19:04:16.319Z,24.00
2022-10-06T19:06:50.114Z,26.00
2022-10-06T19:09:19.514Z,21.25
2022-10-06T19:11:52.088Z,21.25
2022-10-06T19:14:21.115Z,26.50
2022-10-06T19:16:50.468Z,29.00
2022-10-06T19:19:19.433Z,28.75
2022-10-06T19:21:49.230Z,23.00
2022-10-06T19:24:25.780Z,30.00
2022-10-06T19:27:02.685Z,25.75
2022-10-06T19:29:36.896Z,29.50
2022-10-06T19:32:09.849Z,27.00
2022-10-06T19:34:38.683Z,32.25
2022-10-06T19:37:07.687Z,27.50
2022-10-06T19:39:43.052Z,25.50
2022-10-06T19:42:30.720Z,29.50
2022-10-06T19:45:02.122Z,33.75
2022-10-06T19:47:31.539Z,26.25
2022-10-06T19:50:03.748Z,32.50
2022-10-06T19:52:40.362Z,38.25
2022-10-06T19:55:15.593Z,29.75
2022-10-06T19:57:45.771Z,30.75
2022-10-06T20:00:14.922Z,30.00
2022-10-06T20:02:43.985Z,29.25
2022-10-06T20:05:13.390Z,36.50
2022-10-06T20:07:42.000Z,31.75
2022-10-06T20:10:12.325Z,31.00
2022-10-06T20:12:41.634Z,29.50
2022-10-06T20:15:14.531Z,36.75
2022-10-06T20:17:45.822Z,31.25
2022-10-06T20:20:14.571Z,30.50
2022-10-06T20:22:43.260Z,26.00
2022-10-06T20:25:12.032Z,32.75
2022-10-06T20:27:42.991Z,30.50
2022-10-06T20:30:13.995Z,34.00
2022-10-06T20:32:42.415Z,22.50
2022-10-06T20:35:10.869Z,29.50
2022-10-06T20:37:42.476Z,32.75
2022-10-06T20:40:28.719Z,22.25
2022-10-06T20:42:59.711Z,33.25
2022-10-06T20:45:29.938Z,27.00
2022-10-06T20:47:58.505Z,28.75
2022-10-06T20:50:27.393Z,21.50
2022-10-06T20:52:57.630Z,28.25
2022-10-06T20:56:10.327Z,27.50
2022-10-06T20:58:38.881Z,24.75
2022-10-06T21:01:10.817Z,29.00
2022-10-06T21:03:44.844Z,27.00
2022-10-06T21:06:14.600Z,29.75
2022-10-06T21:08:44.305Z,23.00
2022-10-06T21:11:13.422Z,26.75
2022-10-06T21:13:48.683Z,18.25
2022-10-06T21:16:19.007Z,27.75
2022-10-06T21:18:47.829Z,22.00
2022-10-06T21:21:16.160Z,25.75
2022-10-06T21:23:45.968Z,19.00
2022-10-06T21:26:15.047Z,20.25
2022-10-06T21:28:43.583Z,18.75
2022-10-06T21:31:13.616Z,23.75
2022-10-06T21:33:43.716Z,22.50
2022-10-06T21:36:14.481Z,29.75
2022-10-06T21:38:42.854Z,21.67
2022-10-06T21:41:40.189Z,22.00
2022-10-06T21:44:09.253Z,27.50
2022-10-06T21:46:38.341Z,23.25
2022-10-06T21:49:10.502Z,19.00
2022-10-06T21:51:38.759Z,25.25
2022-10-06T21:54:07.348Z,24.50
2022-10-06T21:56:35.500Z,26.25
2022-10-06T21:59:04.913Z,23.00
2022-10-06T22:01:34.152Z,23.50
2022-10-06T22:04:02.797Z,28.25
2022-10-06T22:06:33.864Z,21.50
2022-10-06T22:09:02.466Z,16.00
2022-10-06T22:11:31.552Z,23.50
2022-10-06T22:14:00.356Z,23.50
2022-10-06T22:16:30.836Z,25.25
2022-10-06T22:18:59.044Z,22.75
2022-10-06T22:21:28.372Z,23.25
2022-10-06T22:23:58.525Z,23.25
2022-10-06T22:26:27.202Z,21.00
2022-10-06T22:28:56.035Z,22.00
2022-10-06T22:31:26.205Z,23.50
2022-10-06T22:33:56.483Z,18.25
2022-10-06T22:36:25.136Z,24.50
2022-10-06T22:38:53.420Z,18.25
2022-10-06T22:41:23.236Z,18.75
2022-10-06T22:43:57.435Z,19.50
2022-10-06T22:46:26.282Z,20.50
2022-10-06T22:48:54.841Z,15.50
2022-10-06T22:51:23.121Z,12.75
2022-10-06T22:53:57.294Z,16.00
2022-10-06T22:56:51.050Z,19.75
2022-10-06T22:59:20.929Z,19.50
2022-10-06T23:01:49.159Z,19.50
2022-10-06T23:04:17.416Z,16.00
2022-10-06T23:06:45.757Z,17.75
2022-10-06T23:09:14.051Z,15.00
2022-10-06T23:11:42.509Z,13.00
2022-10-06T23:14:10.696Z,12.50
2022-10-06T23:16:40.384Z,15.25
2022-10-06T23:19:08.914Z,17.25
2022-10-06T23:21:40.055Z,14.50
2022-10-06T23:24:09.007Z,19.25
2022-10-06T23:26:37.270Z,18.00
2022-10-06T23:29:06.819Z,14.25
2022-10-06T23:31:35.036Z,19.75
2022-10-06T23:34:04.673Z,21.50
2022-10-06T23:36:33.009Z,19.75
2022-10-06T23:39:01.091Z,13.75
2022-10-06T23:41:29.542Z,22.00
2022-10-06T23:43:57.676Z,14.75
2022-10-06T23:46:25.762Z,14.50
2022-10-06T23:48:53.922Z,12.25
2022-10-06T23:51:23.377Z,11.75
2022-10-06T23:53:51.498Z,17.00
2022-10-06T23:56:20.942Z,16.00
2022-10-06T23:58:49.333Z,12.25
